sensor_id;sensor_type;location;lat;lon;timestamp;P1;durP1;ratioP1;P2;durP2;ratioP2
4214;SDS011;2121;48.062;7.850;2023-08-17T00:01:50;4.10;;;3.70;;
4214;SDS011;2121;48.062;7.850;2023-08-17T00:04:16;5.13;;;4.73;;
4214;SDS011;2121;48.062;7.850;2023-08-17T00:06:42;7.30;;;4.77;;
4214;SDS011;2121;48.062;7.850;2023-08-17T00:09:08;5.17;;;4.67;;
4214;SDS011;2121;48.062;7.850;2023-08-17T00:11:37;9.80;;;5.00;;
4214;SDS011;2121;48.062;7.850;2023-08-17T00:14:03;12.20;;;5.03;;
4214;SDS011;2121;48.062;7.850;2023-08-17T00:16:30;5.30;;;4.80;;
4214;SDS011;2121;48.062;7.850;2023-08-17T00:18:56;6.00;;;5.33;;
4214;SDS011;2121;48.062;7.850;2023-08-17T00:21:22;5.03;;;4.53;;
4214;SDS011;2121;48.062;7.850;2023-08-17T00:23:48;4.23;;;3.70;;
4214;SDS011;2121;48.062;7.850;2023-08-17T00:26:14;5.77;;;4.80;;
4214;SDS011;2121;48.062;7.850;2023-08-17T00:28:40;4.70;;;4.30;;
4214;SDS011;2121;48.062;7.850;2023-08-17T00:31:06;4.90;;;4.43;;
4214;SDS011;2121;48.062;7.850;2023-08-17T00:33:32;4.40;;;4.03;;
4214;SDS011;2121;48.062;7.850;2023-08-17T00:35:57;5.73;;;5.17;;
4214;SDS011;2121;48.062;7.850;2023-08-17T00:38:23;5.13;;;4.33;;
4214;SDS011;2121;48.062;7.850;2023-08-17T00:40:49;5.27;;;4.77;;
4214;SDS011;2121;48.062;7.850;2023-08-17T00:43:15;7.37;;;5.03;;
4214;SDS011;2121;48.062;7.850;2023-08-17T00:45:41;5.47;;;4.90;;
4214;SDS011;2121;48.062;7.850;2023-08-17T00:48:09;5.37;;;4.60;;
4214;SDS011;2121;48.062;7.850;2023-08-17T00:50:36;5.83;;;5.23;;
4214;SDS011;2121;48.062;7.850;2023-08-17T00:53:04;5.47;;;4.80;;
4214;SDS011;2121;48.062;7.850;2023-08-17T00:55:31;7.43;;;4.80;;
4214;SDS011;2121;48.062;7.850;2023-08-17T00:57:58;6.10;;;4.87;;
4214;SDS011;2121;48.062;7.850;2023-08-17T01:00:24;6.20;;;5.37;;
4214;SDS011;2121;48.062;7.850;2023-08-17T01:02:53;9.90;;;6.07;;
4214;SDS011;2121;48.062;7.850;2023-08-17T01:05:19;7.87;;;6.27;;
4214;SDS011;2121;48.062;7.850;2023-08-17T01:07:46;5.67;;;5.17;;
4214;SDS011;2121;48.062;7.850;2023-08-17T01:10:12;5.77;;;4.93;;
4214;SDS011;2121;48.062;7.850;2023-08-17T01:12:42;5.80;;;5.30;;
4214;SDS011;2121;48.062;7.850;2023-08-17T01:15:35;5.60;;;5.10;;
4214;SDS011;2121;48.062;7.850;2023-08-17T01:18:05;5.80;;;5.17;;
4214;SDS011;2121;48.062;7.850;2023-08-17T01:20:43;4.63;;;4.30;;
4214;SDS011;2121;48.062;7.850;2023-08-17T01:23:10;5.77;;;5.27;;
4214;SDS011;2121;48.062;7.850;2023-08-17T01:25:35;7.80;;;4.73;;
4214;SDS011;2121;48.062;7.850;2023-08-17T01:28:04;6.37;;;5.10;;
4214;SDS011;2121;48.062;7.850;2023-08-17T01:30:33;7.67;;;5.67;;
4214;SDS011;2121;48.062;7.850;2023-08-17T01:33:16;5.60;;;5.10;;
4214;SDS011;2121;48.062;7.850;2023-08-17T01:36:22;9.23;;;5.20;;
4214;SDS011;2121;48.062;7.850;2023-08-17T01:38:57;12.23;;;6.40;;
4214;SDS011;2121;48.062;7.850;2023-08-17T01:41:26;6.03;;;5.43;;
4214;SDS011;2121;48.062;7.850;2023-08-17T01:43:53;5.10;;;4.67;;
4214;SDS011;2121;48.062;7.850;2023-08-17T01:46:20;7.83;;;6.20;;
4214;SDS011;2121;48.062;7.850;2023-08-17T01:48:46;7.60;;;5.60;;
4214;SDS011;2121;48.062;7.850;2023-08-17T01:51:18;6.10;;;4.87;;
4214;SDS011;2121;48.062;7.850;2023-08-17T01:53:47;4.90;;;4.40;;
4214;SDS011;2121;48.062;7.850;2023-08-17T01:56:13;6.53;;;4.53;;
4214;SDS011;2121;48.062;7.850;2023-08-17T01:58:39;15.60;;;5.73;;
4214;SDS011;2121;48.062;7.850;2023-08-17T02:01:05;7.90;;;5.53;;
4214;SDS011;2121;48.062;7.850;2023-08-17T02:03:30;5.77;;;5.17;;
4214;SDS011;2121;48.062;7.850;2023-08-17T02:05:57;10.30;;;5.07;;
4214;SDS011;2121;48.062;7.850;2023-08-17T02:08:23;6.23;;;5.60;;
4214;SDS011;2121;48.062;7.850;2023-08-17T02:10:49;5.00;;;4.60;;
4214;SDS011;2121;48.062;7.850;2023-08-17T02:13:15;5.70;;;5.10;;
4214;SDS011;2121;48.062;7.850;2023-08-17T02:15:41;5.57;;;5.00;;
4214;SDS011;2121;48.062;7.850;2023-08-17T02:18:07;9.33;;;5.10;;
4214;SDS011;2121;48.062;7.850;2023-08-17T02:20:33;6.50;;;5.03;;
4214;SDS011;2121;48.062;7.850;2023-08-17T02:22:59;6.33;;;5.03;;
4214;SDS011;2121;48.062;7.850;2023-08-17T02:25:25;5.90;;;4.97;;
4214;SDS011;2121;48.062;7.850;2023-08-17T02:27:52;5.97;;;5.37;;
4214;SDS011;2121;48.062;7.850;2023-08-17T02:30:18;7.07;;;5.40;;
4214;SDS011;2121;48.062;7.850;2023-08-17T02:32:44;7.30;;;5.70;;
4214;SDS011;2121;48.062;7.850;2023-08-17T02:35:09;7.03;;;5.80;;
4214;SDS011;2121;48.062;7.850;2023-08-17T02:37:35;7.33;;;6.00;;
4214;SDS011;2121;48.062;7.850;2023-08-17T02:40:01;6.57;;;5.70;;
4214;SDS011;2121;48.062;7.850;2023-08-17T02:42:29;6.60;;;6.00;;
4214;SDS011;2121;48.062;7.850;2023-08-17T02:44:55;9.47;;;6.90;;
4214;SDS011;2121;48.062;7.850;2023-08-17T02:47:20;9.23;;;8.33;;
4214;SDS011;2121;48.062;7.850;2023-08-17T02:49:46;7.27;;;6.60;;
4214;SDS011;2121;48.062;7.850;2023-08-17T02:52:14;7.90;;;6.23;;
4214;SDS011;2121;48.062;7.850;2023-08-17T02:54:39;8.67;;;6.03;;
4214;SDS011;2121;48.062;7.850;2023-08-17T02:57:05;7.00;;;6.30;;
4214;SDS011;2121;48.062;7.850;2023-08-17T02:59:31;12.40;;;6.40;;
4214;SDS011;2121;48.062;7.850;2023-08-17T03:01:56;7.53;;;6.10;;
4214;SDS011;2121;48.062;7.850;2023-08-17T03:04:22;10.00;;;6.87;;
4214;SDS011;2121;48.062;7.850;2023-08-17T03:06:49;7.83;;;6.80;;
4214;SDS011;2121;48.062;7.850;2023-08-17T03:09:15;9.47;;;7.30;;
4214;SDS011;2121;48.062;7.850;2023-08-17T03:11:40;9.10;;;7.67;;
4214;SDS011;2121;48.062;7.850;2023-08-17T03:14:06;8.80;;;7.70;;
4214;SDS011;2121;48.062;7.850;2023-08-17T03:16:32;9.47;;;8.10;;
4214;SDS011;2121;48.062;7.850;2023-08-17T03:18:57;13.77;;;8.50;;
4214;SDS011;2121;48.062;7.850;2023-08-17T03:21:23;12.83;;;8.67;;
4214;SDS011;2121;48.062;7.850;2023-08-17T03:23:49;11.60;;;8.60;;
4214;SDS011;2121;48.062;7.850;2023-08-17T03:26:15;9.80;;;8.20;;
4214;SDS011;2121;48.062;7.850;2023-08-17T03:28:41;10.33;;;8.67;;
4214;SDS011;2121;48.062;7.850;2023-08-17T03:31:07;11.40;;;9.63;;
4214;SDS011;2121;48.062;7.850;2023-08-17T03:33:33;15.90;;;9.70;;
4214;SDS011;2121;48.062;7.850;2023-08-17T03:36:01;10.10;;;8.80;;
4214;SDS011;2121;48.062;7.850;2023-08-17T03:38:27;12.03;;;9.43;;
4214;SDS011;2121;48.062;7.850;2023-08-17T03:40:54;12.33;;;9.10;;
4214;SDS011;2121;48.062;7.850;2023-08-17T03:43:20;12.83;;;10.00;;
4214;SDS011;2121;48.062;7.850;2023-08-17T03:45:45;11.90;;;10.23;;
4214;SDS011;2121;48.062;7.850;2023-08-17T03:48:11;10.33;;;8.80;;
4214;SDS011;2121;48.062;7.850;2023-08-17T03:50:37;18.80;;;10.93;;
4214;SDS011;2121;48.062;7.850;2023-08-17T03:53:03;8.97;;;8.07;;
4214;SDS011;2121;48.062;7.850;2023-08-17T03:55:29;15.03;;;8.23;;
4214;SDS011;2121;48.062;7.850;2023-08-17T03:57:55;10.53;;;9.43;;
4214;SDS011;2121;48.062;7.850;2023-08-17T04:00:21;16.13;;;9.73;;
4214;SDS011;2121;48.062;7.850;2023-08-17T04:02:46;17.17;;;13.20;;
4214;SDS011;2121;48.062;7.850;2023-08-17T04:05:12;24.13;;;14.27;;
4214;SDS011;2121;48.062;7.850;2023-08-17T04:07:38;19.33;;;14.40;;
4214;SDS011;2121;48.062;7.850;2023-08-17T04:10:07;18.47;;;13.10;;
4214;SDS011;2121;48.062;7.850;2023-08-17T04:12:34;17.50;;;14.33;;
4214;SDS011;2121;48.062;7.850;2023-08-17T04:14:59;19.23;;;13.17;;
4214;SDS011;2121;48.062;7.850;2023-08-17T04:17:25;16.43;;;13.70;;
4214;SDS011;2121;48.062;7.850;2023-08-17T04:19:51;16.23;;;12.90;;
4214;SDS011;2121;48.062;7.850;2023-08-17T04:22:17;18.70;;;12.50;;
4214;SDS011;2121;48.062;7.850;2023-08-17T04:24:43;16.43;;;12.10;;
4214;SDS011;2121;48.062;7.850;2023-08-17T04:27:08;19.60;;;12.60;;
4214;SDS011;2121;48.062;7.850;2023-08-17T04:29:34;19.90;;;12.30;;
4214;SDS011;2121;48.062;7.850;2023-08-17T04:32:01;21.20;;;12.00;;
4214;SDS011;2121;48.062;7.850;2023-08-17T04:34:27;19.30;;;12.63;;
4214;SDS011;2121;48.062;7.850;2023-08-17T04:36:52;19.83;;;13.07;;
4214;SDS011;2121;48.062;7.850;2023-08-17T04:39:18;17.53;;;14.60;;
4214;SDS011;2121;48.062;7.850;2023-08-17T04:41:44;15.83;;;13.90;;
4214;SDS011;2121;48.062;7.850;2023-08-17T04:44:09;20.67;;;15.87;;
4214;SDS011;2121;48.062;7.850;2023-08-17T04:46:35;18.37;;;14.23;;
4214;SDS011;2121;48.062;7.850;2023-08-17T04:49:01;17.90;;;13.83;;
4214;SDS011;2121;48.062;7.850;2023-08-17T04:51:27;15.63;;;12.87;;
4214;SDS011;2121;48.062;7.850;2023-08-17T04:53:53;19.27;;;14.50;;
4214;SDS011;2121;48.062;7.850;2023-08-17T04:56:18;17.90;;;13.90;;
4214;SDS011;2121;48.062;7.850;2023-08-17T04:58:44;18.33;;;14.83;;
4214;SDS011;2121;48.062;7.850;2023-08-17T05:01:10;18.00;;;14.17;;
4214;SDS011;2121;48.062;7.850;2023-08-17T05:03:36;16.50;;;14.53;;
4214;SDS011;2121;48.062;7.850;2023-08-17T05:06:02;17.33;;;13.70;;
4214;SDS011;2121;48.062;7.850;2023-08-17T05:08:28;17.73;;;13.20;;
4214;SDS011;2121;48.062;7.850;2023-08-17T05:10:54;19.73;;;14.47;;
4214;SDS011;2121;48.062;7.850;2023-08-17T05:13:20;18.73;;;13.93;;
4214;SDS011;2121;48.062;7.850;2023-08-17T05:15:45;17.00;;;13.73;;
4214;SDS011;2121;48.062;7.850;2023-08-17T05:18:11;18.97;;;13.40;;
4214;SDS011;2121;48.062;7.850;2023-08-17T05:20:37;19.47;;;13.87;;
4214;SDS011;2121;48.062;7.850;2023-08-17T05:23:02;19.60;;;15.17;;
4214;SDS011;2121;48.062;7.850;2023-08-17T05:25:29;19.40;;;12.90;;
4214;SDS011;2121;48.062;7.850;2023-08-17T05:27:55;18.40;;;13.73;;
4214;SDS011;2121;48.062;7.850;2023-08-17T05:30:20;20.73;;;14.77;;
4214;SDS011;2121;48.062;7.850;2023-08-17T05:32:46;26.40;;;16.83;;
4214;SDS011;2121;48.062;7.850;2023-08-17T05:35:12;18.80;;;15.30;;
4214;SDS011;2121;48.062;7.850;2023-08-17T05:37:38;19.83;;;15.03;;
4214;SDS011;2121;48.062;7.850;2023-08-17T05:40:04;20.83;;;14.10;;
4214;SDS011;2121;48.062;7.850;2023-08-17T05:42:30;17.70;;;13.67;;
4214;SDS011;2121;48.062;7.850;2023-08-17T05:44:56;21.93;;;16.10;;
4214;SDS011;2121;48.062;7.850;2023-08-17T05:47:22;22.50;;;15.70;;
4214;SDS011;2121;48.062;7.850;2023-08-17T05:49:47;21.97;;;15.50;;
4214;SDS011;2121;48.062;7.850;2023-08-17T05:52:13;19.43;;;14.17;;
4214;SDS011;2121;48.062;7.850;2023-08-17T05:54:39;29.50;;;15.90;;
4214;SDS011;2121;48.062;7.850;2023-08-17T05:57:05;17.73;;;15.00;;
4214;SDS011;2121;48.062;7.850;2023-08-17T05:59:30;21.20;;;14.03;;
4214;SDS011;2121;48.062;7.850;2023-08-17T06:01:56;17.90;;;14.00;;
4214;SDS011;2121;48.062;7.850;2023-08-17T06:04:22;17.37;;;13.83;;
4214;SDS011;2121;48.062;7.850;2023-08-17T06:06:48;17.23;;;14.03;;
4214;SDS011;2121;48.062;7.850;2023-08-17T06:09:13;18.03;;;14.10;;
4214;SDS011;2121;48.062;7.850;2023-08-17T06:11:39;18.03;;;14.00;;
4214;SDS011;2121;48.062;7.850;2023-08-17T06:14:06;18.20;;;14.50;;
4214;SDS011;2121;48.062;7.850;2023-08-17T06:16:32;16.17;;;12.40;;
4214;SDS011;2121;48.062;7.850;2023-08-17T06:18:58;18.07;;;14.10;;
4214;SDS011;2121;48.062;7.850;2023-08-17T06:21:24;19.13;;;14.10;;
4214;SDS011;2121;48.062;7.850;2023-08-17T06:23:49;21.70;;;15.83;;
4214;SDS011;2121;48.062;7.850;2023-08-17T06:26:15;20.90;;;14.00;;
4214;SDS011;2121;48.062;7.850;2023-08-17T06:28:41;17.47;;;14.40;;
4214;SDS011;2121;48.062;7.850;2023-08-17T06:31:06;23.40;;;15.67;;
4214;SDS011;2121;48.062;7.850;2023-08-17T06:33:32;18.57;;;14.40;;
4214;SDS011;2121;48.062;7.850;2023-08-17T06:35:58;19.40;;;14.40;;
4214;SDS011;2121;48.062;7.850;2023-08-17T06:38:23;20.10;;;15.53;;
4214;SDS011;2121;48.062;7.850;2023-08-17T06:40:50;27.83;;;16.73;;
4214;SDS011;2121;48.062;7.850;2023-08-17T06:43:17;27.20;;;16.77;;
4214;SDS011;2121;48.062;7.850;2023-08-17T06:45:43;21.63;;;15.10;;
4214;SDS011;2121;48.062;7.850;2023-08-17T06:48:09;28.80;;;17.43;;
4214;SDS011;2121;48.062;7.850;2023-08-17T06:50:35;18.37;;;14.10;;
4214;SDS011;2121;48.062;7.850;2023-08-17T06:53:01;22.23;;;15.40;;
4214;SDS011;2121;48.062;7.850;2023-08-17T06:55:27;18.43;;;14.40;;
4214;SDS011;2121;48.062;7.850;2023-08-17T06:57:53;19.40;;;13.10;;
4214;SDS011;2121;48.062;7.850;2023-08-17T07:00:20;18.70;;;13.77;;
4214;SDS011;2121;48.062;7.850;2023-08-17T07:02:46;18.60;;;14.03;;
4214;SDS011;2121;48.062;7.850;2023-08-17T07:05:16;17.97;;;13.13;;
4214;SDS011;2121;48.062;7.850;2023-08-17T07:07:43;22.00;;;14.70;;
4214;SDS011;2121;48.062;7.850;2023-08-17T07:10:09;18.73;;;12.90;;
4214;SDS011;2121;48.062;7.850;2023-08-17T07:12:38;16.57;;;11.33;;
4214;SDS011;2121;48.062;7.850;2023-08-17T07:15:05;18.93;;;12.80;;
4214;SDS011;2121;48.062;7.850;2023-08-17T07:17:32;18.60;;;13.63;;
4214;SDS011;2121;48.062;7.850;2023-08-17T07:19:59;18.67;;;13.13;;
4214;SDS011;2121;48.062;7.850;2023-08-17T07:22:25;19.60;;;14.30;;
4214;SDS011;2121;48.062;7.850;2023-08-17T07:24:50;22.53;;;13.30;;
4214;SDS011;2121;48.062;7.850;2023-08-17T07:27:16;23.60;;;13.27;;
4214;SDS011;2121;48.062;7.850;2023-08-17T07:29:42;16.03;;;12.10;;
4214;SDS011;2121;48.062;7.850;2023-08-17T07:32:08;16.37;;;11.60;;
4214;SDS011;2121;48.062;7.850;2023-08-17T07:34:34;17.97;;;12.40;;
4214;SDS011;2121;48.062;7.850;2023-08-17T07:37:01;18.17;;;13.07;;
4214;SDS011;2121;48.062;7.850;2023-08-17T07:39:29;17.80;;;11.50;;
4214;SDS011;2121;48.062;7.850;2023-08-17T07:41:55;22.07;;;12.87;;
4214;SDS011;2121;48.062;7.850;2023-08-17T07:44:20;13.00;;;10.40;;
4214;SDS011;2121;48.062;7.850;2023-08-17T07:46:46;16.67;;;12.07;;
4214;SDS011;2121;48.062;7.850;2023-08-17T07:49:12;13.30;;;11.23;;
4214;SDS011;2121;48.062;7.850;2023-08-17T07:51:37;20.37;;;12.30;;
4214;SDS011;2121;48.062;7.850;2023-08-17T07:54:03;23.30;;;14.17;;
4214;SDS011;2121;48.062;7.850;2023-08-17T07:56:29;15.80;;;12.13;;
4214;SDS011;2121;48.062;7.850;2023-08-17T07:58:55;22.57;;;13.93;;
4214;SDS011;2121;48.062;7.850;2023-08-17T08:01:22;21.97;;;14.23;;
4214;SDS011;2121;48.062;7.850;2023-08-17T08:03:48;18.07;;;13.40;;
4214;SDS011;2121;48.062;7.850;2023-08-17T08:06:13;18.00;;;13.97;;
4214;SDS011;2121;48.062;7.850;2023-08-17T08:08:39;16.77;;;13.67;;
4214;SDS011;2121;48.062;7.850;2023-08-17T08:11:05;27.13;;;13.80;;
4214;SDS011;2121;48.062;7.850;2023-08-17T08:13:31;18.40;;;12.90;;
4214;SDS011;2121;48.062;7.850;2023-08-17T08:16:00;17.97;;;12.80;;
4214;SDS011;2121;48.062;7.850;2023-08-17T08:18:26;17.67;;;12.60;;
4214;SDS011;2121;48.062;7.850;2023-08-17T08:20:51;20.67;;;14.30;;
4214;SDS011;2121;48.062;7.850;2023-08-17T08:23:17;14.77;;;11.77;;
4214;SDS011;2121;48.062;7.850;2023-08-17T08:25:43;21.63;;;13.37;;
4214;SDS011;2121;48.062;7.850;2023-08-17T08:28:09;18.73;;;12.43;;
4214;SDS011;2121;48.062;7.850;2023-08-17T08:30:35;12.53;;;10.97;;
4214;SDS011;2121;48.062;7.850;2023-08-17T08:33:01;15.80;;;11.43;;
4214;SDS011;2121;48.062;7.850;2023-08-17T08:35:27;17.33;;;13.03;;
4214;SDS011;2121;48.062;7.850;2023-08-17T08:37:54;13.57;;;10.03;;
4214;SDS011;2121;48.062;7.850;2023-08-17T08:40:26;14.27;;;10.67;;
4214;SDS011;2121;48.062;7.850;2023-08-17T08:42:54;15.10;;;10.47;;
4214;SDS011;2121;48.062;7.850;2023-08-17T08:45:24;13.80;;;9.60;;
4214;SDS011;2121;48.062;7.850;2023-08-17T08:47:52;14.20;;;10.33;;
4214;SDS011;2121;48.062;7.850;2023-08-17T08:50:20;13.20;;;11.33;;
4214;SDS011;2121;48.062;7.850;2023-08-17T08:52:58;12.40;;;9.20;;
4214;SDS011;2121;48.062;7.850;2023-08-17T08:55:29;15.50;;;10.30;;
4214;SDS011;2121;48.062;7.850;2023-08-17T08:58:04;14.97;;;10.17;;
4214;SDS011;2121;48.062;7.850;2023-08-17T09:00:30;15.80;;;9.43;;
4214;SDS011;2121;48.062;7.850;2023-08-17T09:02:58;10.37;;;8.10;;
4214;SDS011;2121;48.062;7.850;2023-08-17T09:05:27;12.17;;;9.67;;
4214;SDS011;2121;48.062;7.850;2023-08-17T09:07:54;13.83;;;9.90;;
4214;SDS011;2121;48.062;7.850;2023-08-17T09:10:23;12.73;;;9.13;;
4214;SDS011;2121;48.062;7.850;2023-08-17T09:12:49;9.87;;;8.60;;
4214;SDS011;2121;48.062;7.850;2023-08-17T09:15:14;10.97;;;8.80;;
4214;SDS011;2121;48.062;7.850;2023-08-17T09:17:40;13.90;;;9.27;;
4214;SDS011;2121;48.062;7.850;2023-08-17T09:20:08;15.43;;;10.90;;
4214;SDS011;2121;48.062;7.850;2023-08-17T09:22:39;17.37;;;11.40;;
4214;SDS011;2121;48.062;7.850;2023-08-17T09:25:11;15.30;;;10.90;;
4214;SDS011;2121;48.062;7.850;2023-08-17T09:27:48;11.27;;;9.50;;
4214;SDS011;2121;48.062;7.850;2023-08-17T09:30:14;16.40;;;10.37;;
4214;SDS011;2121;48.062;7.850;2023-08-17T09:32:39;28.70;;;13.50;;
4214;SDS011;2121;48.062;7.850;2023-08-17T09:35:06;25.00;;;14.33;;
4214;SDS011;2121;48.062;7.850;2023-08-17T09:37:33;17.70;;;11.57;;
4214;SDS011;2121;48.062;7.850;2023-08-17T09:39:59;14.23;;;10.20;;
4214;SDS011;2121;48.062;7.850;2023-08-17T09:42:25;13.77;;;11.27;;
4214;SDS011;2121;48.062;7.850;2023-08-17T09:44:52;14.47;;;11.20;;
4214;SDS011;2121;48.062;7.850;2023-08-17T09:47:21;15.33;;;11.40;;
4214;SDS011;2121;48.062;7.850;2023-08-17T09:49:51;13.47;;;11.30;;
4214;SDS011;2121;48.062;7.850;2023-08-17T09:52:18;13.03;;;10.40;;
4214;SDS011;2121;48.062;7.850;2023-08-17T09:54:48;12.77;;;10.73;;
4214;SDS011;2121;48.062;7.850;2023-08-17T09:57:15;17.37;;;13.00;;
4214;SDS011;2121;48.062;7.850;2023-08-17T09:59:41;15.50;;;11.73;;
4214;SDS011;2121;48.062;7.850;2023-08-17T10:02:17;13.47;;;10.37;;
4214;SDS011;2121;48.062;7.850;2023-08-17T10:04:45;14.30;;;10.67;;
4214;SDS011;2121;48.062;7.850;2023-08-17T10:07:20;11.87;;;9.47;;
4214;SDS011;2121;48.062;7.850;2023-08-17T10:10:04;15.90;;;9.60;;
4214;SDS011;2121;48.062;7.850;2023-08-17T10:12:44;13.27;;;8.80;;
4214;SDS011;2121;48.062;7.850;2023-08-17T10:15:20;10.60;;;8.73;;
4214;SDS011;2121;48.062;7.850;2023-08-17T10:20:58;11.63;;;8.00;;
4214;SDS011;2121;48.062;7.850;2023-08-17T10:23:31;13.23;;;8.80;;
4214;SDS011;2121;48.062;7.850;2023-08-17T10:25:59;11.65;;;9.20;;
4214;SDS011;2121;48.062;7.850;2023-08-17T10:28:29;9.68;;;8.00;;
4214;SDS011;2121;48.062;7.850;2023-08-17T10:30:57;11.15;;;8.63;;
4214;SDS011;2121;48.062;7.850;2023-08-17T10:33:24;12.02;;;8.13;;
4214;SDS011;2121;48.062;7.850;2023-08-17T10:35:51;10.38;;;8.48;;
4214;SDS011;2121;48.062;7.850;2023-08-17T10:38:17;9.55;;;7.22;;
4214;SDS011;2121;48.062;7.850;2023-08-17T10:40:43;8.30;;;7.18;;
4214;SDS011;2121;48.062;7.850;2023-08-17T10:43:09;9.77;;;7.95;;
4214;SDS011;2121;48.062;7.850;2023-08-17T10:45:36;8.70;;;6.75;;
4214;SDS011;2121;48.062;7.850;2023-08-17T10:50:33;8.63;;;7.65;;
4214;SDS011;2121;48.062;7.850;2023-08-17T10:53:03;10.18;;;7.20;;
4214;SDS011;2121;48.062;7.850;2023-08-17T10:55:41;8.48;;;7.68;;
4214;SDS011;2121;48.062;7.850;2023-08-17T10:58:10;8.88;;;7.32;;
4214;SDS011;2121;48.062;7.850;2023-08-17T11:00:40;12.00;;;7.97;;
4214;SDS011;2121;48.062;7.850;2023-08-17T11:03:18;7.47;;;6.72;;
4214;SDS011;2121;48.062;7.850;2023-08-17T11:05:46;8.95;;;7.07;;
4214;SDS011;2121;48.062;7.850;2023-08-17T11:08:28;6.55;;;6.03;;
4214;SDS011;2121;48.062;7.850;2023-08-17T11:11:05;9.65;;;5.25;;
4214;SDS011;2121;48.062;7.850;2023-08-17T11:13:36;6.85;;;5.75;;
4214;SDS011;2121;48.062;7.850;2023-08-17T11:16:05;6.07;;;5.45;;
4214;SDS011;2121;48.062;7.850;2023-08-17T11:18:31;5.53;;;5.05;;
4214;SDS011;2121;48.062;7.850;2023-08-17T11:20:58;7.25;;;5.60;;
4214;SDS011;2121;48.062;7.850;2023-08-17T11:23:28;7.38;;;6.07;;
4214;SDS011;2121;48.062;7.850;2023-08-17T11:25:55;17.00;;;6.53;;
4214;SDS011;2121;48.062;7.850;2023-08-17T11:28:22;6.35;;;5.63;;
4214;SDS011;2121;48.062;7.850;2023-08-17T11:30:58;5.88;;;5.28;;
4214;SDS011;2121;48.062;7.850;2023-08-17T11:33:28;6.22;;;5.53;;
4214;SDS011;2121;48.062;7.850;2023-08-17T11:35:56;5.13;;;4.78;;
4214;SDS011;2121;48.062;7.850;2023-08-17T11:38:22;4.88;;;4.57;;
4214;SDS011;2121;48.062;7.850;2023-08-17T11:40:51;6.93;;;5.38;;
4214;SDS011;2121;48.062;7.850;2023-08-17T11:43:18;6.35;;;4.95;;
4214;SDS011;2121;48.062;7.850;2023-08-17T11:45:45;5.95;;;5.30;;
4214;SDS011;2121;48.062;7.850;2023-08-17T11:48:11;11.23;;;4.90;;
4214;SDS011;2121;48.062;7.850;2023-08-17T11:50:37;5.20;;;4.78;;
4214;SDS011;2121;48.062;7.850;2023-08-17T11:53:04;5.50;;;4.55;;
4214;SDS011;2121;48.062;7.850;2023-08-17T11:55:30;6.80;;;4.35;;
4214;SDS011;2121;48.062;7.850;2023-08-17T11:57:56;6.32;;;5.15;;
4214;SDS011;2121;48.062;7.850;2023-08-17T12:00:22;8.40;;;4.05;;
4214;SDS011;2121;48.062;7.850;2023-08-17T12:02:50;6.30;;;4.63;;
4214;SDS011;2121;48.062;7.850;2023-08-17T12:05:23;4.97;;;4.47;;
4214;SDS011;2121;48.062;7.850;2023-08-17T12:07:54;3.90;;;3.60;;
4214;SDS011;2121;48.062;7.850;2023-08-17T12:10:20;4.75;;;3.60;;
4214;SDS011;2121;48.062;7.850;2023-08-17T12:12:49;6.60;;;3.60;;
4214;SDS011;2121;48.062;7.850;2023-08-17T12:15:16;3.60;;;3.30;;
4214;SDS011;2121;48.062;7.850;2023-08-17T12:17:46;4.63;;;4.30;;
4214;SDS011;2121;48.062;7.850;2023-08-17T12:20:19;4.25;;;3.70;;
4214;SDS011;2121;48.062;7.850;2023-08-17T12:22:46;5.30;;;3.72;;
4214;SDS011;2121;48.062;7.850;2023-08-17T12:25:13;4.30;;;3.90;;
4214;SDS011;2121;48.062;7.850;2023-08-17T12:27:39;7.40;;;3.40;;
4214;SDS011;2121;48.062;7.850;2023-08-17T12:30:24;3.15;;;2.95;;
4214;SDS011;2121;48.062;7.850;2023-08-17T12:32:56;3.35;;;3.15;;
4214;SDS011;2121;48.062;7.850;2023-08-17T12:35:22;2.92;;;2.83;;
4214;SDS011;2121;48.062;7.850;2023-08-17T12:37:49;3.38;;;2.90;;
4214;SDS011;2121;48.062;7.850;2023-08-17T12:40:16;3.20;;;3.00;;
4214;SDS011;2121;48.062;7.850;2023-08-17T12:42:42;4.07;;;3.75;;
4214;SDS011;2121;48.062;7.850;2023-08-17T12:45:08;3.42;;;3.22;;
4214;SDS011;2121;48.062;7.850;2023-08-17T12:47:34;3.33;;;3.13;;
4214;SDS011;2121;48.062;7.850;2023-08-17T12:50:00;4.88;;;3.40;;
4214;SDS011;2121;48.062;7.850;2023-08-17T12:52:28;4.22;;;3.30;;
4214;SDS011;2121;48.062;7.850;2023-08-17T12:54:54;3.47;;;3.28;;
4214;SDS011;2121;48.062;7.850;2023-08-17T12:57:20;3.70;;;3.50;;
4214;SDS011;2121;48.062;7.850;2023-08-17T12:59:45;9.30;;;3.83;;
4214;SDS011;2121;48.062;7.850;2023-08-17T13:02:11;4.20;;;3.90;;
4214;SDS011;2121;48.062;7.850;2023-08-17T13:04:37;4.43;;;4.03;;
4214;SDS011;2121;48.062;7.850;2023-08-17T13:07:02;10.45;;;4.28;;
4214;SDS011;2121;48.062;7.850;2023-08-17T13:09:28;4.22;;;3.83;;
4214;SDS011;2121;48.062;7.850;2023-08-17T13:11:54;3.53;;;3.22;;
4214;SDS011;2121;48.062;7.850;2023-08-17T13:14:20;3.58;;;3.28;;
4214;SDS011;2121;48.062;7.850;2023-08-17T13:16:47;3.72;;;3.42;;
4214;SDS011;2121;48.062;7.850;2023-08-17T13:19:17;6.20;;;3.63;;
4214;SDS011;2121;48.062;7.850;2023-08-17T13:21:43;4.72;;;4.22;;
4214;SDS011;2121;48.062;7.850;2023-08-17T13:24:09;5.88;;;3.85;;
4214;SDS011;2121;48.062;7.850;2023-08-17T13:26:38;6.78;;;3.90;;
4214;SDS011;2121;48.062;7.850;2023-08-17T13:29:03;3.80;;;3.50;;
4214;SDS011;2121;48.062;7.850;2023-08-17T13:31:30;6.07;;;2.90;;
4214;SDS011;2121;48.062;7.850;2023-08-17T13:33:56;3.35;;;3.05;;
4214;SDS011;2121;48.062;7.850;2023-08-17T13:36:22;3.45;;;3.25;;
4214;SDS011;2121;48.062;7.850;2023-08-17T13:38:47;3.72;;;3.17;;
4214;SDS011;2121;48.062;7.850;2023-08-17T13:41:13;3.33;;;3.03;;
4214;SDS011;2121;48.062;7.850;2023-08-17T13:43:39;3.20;;;3.03;;
4214;SDS011;2121;48.062;7.850;2023-08-17T13:46:05;5.30;;;3.33;;
4214;SDS011;2121;48.062;7.850;2023-08-17T13:48:31;2.95;;;2.75;;
4214;SDS011;2121;48.062;7.850;2023-08-17T13:50:57;7.60;;;3.88;;
4214;SDS011;2121;48.062;7.850;2023-08-17T13:53:23;3.15;;;2.95;;
4214;SDS011;2121;48.062;7.850;2023-08-17T13:55:48;4.47;;;3.15;;
4214;SDS011;2121;48.062;7.850;2023-08-17T13:58:14;4.75;;;2.83;;
4214;SDS011;2121;48.062;7.850;2023-08-17T14:00:40;6.85;;;3.55;;
4214;SDS011;2121;48.062;7.850;2023-08-17T14:03:06;7.75;;;3.00;;
4214;SDS011;2121;48.062;7.850;2023-08-17T14:05:33;3.97;;;3.15;;
4214;SDS011;2121;48.062;7.850;2023-08-17T14:07:59;6.10;;;3.13;;
4214;SDS011;2121;48.062;7.850;2023-08-17T14:10:25;5.95;;;3.53;;
4214;SDS011;2121;48.062;7.850;2023-08-17T14:12:51;3.50;;;3.20;;
4214;SDS011;2121;48.062;7.850;2023-08-17T14:15:16;7.55;;;3.42;;
4214;SDS011;2121;48.062;7.850;2023-08-17T14:17:42;3.30;;;2.95;;
4214;SDS011;2121;48.062;7.850;2023-08-17T14:20:08;3.75;;;2.92;;
4214;SDS011;2121;48.062;7.850;2023-08-17T14:22:34;4.00;;;2.95;;
4214;SDS011;2121;48.062;7.850;2023-08-17T14:25:01;3.80;;;2.83;;
4214;SDS011;2121;48.062;7.850;2023-08-17T14:27:28;5.25;;;3.50;;
4214;SDS011;2121;48.062;7.850;2023-08-17T14:29:54;5.55;;;3.53;;
4214;SDS011;2121;48.062;7.850;2023-08-17T14:32:19;6.30;;;3.50;;
4214;SDS011;2121;48.062;7.850;2023-08-17T14:34:45;6.15;;;3.63;;
4214;SDS011;2121;48.062;7.850;2023-08-17T14:37:11;6.68;;;4.20;;
4214;SDS011;2121;48.062;7.850;2023-08-17T14:39:37;4.20;;;3.80;;
4214;SDS011;2121;48.062;7.850;2023-08-17T14:42:02;5.50;;;4.25;;
4214;SDS011;2121;48.062;7.850;2023-08-17T14:44:28;9.10;;;4.72;;
4214;SDS011;2121;48.062;7.850;2023-08-17T14:46:56;5.53;;;4.20;;
4214;SDS011;2121;48.062;7.850;2023-08-17T14:49:21;5.72;;;4.25;;
4214;SDS011;2121;48.062;7.850;2023-08-17T14:51:47;4.57;;;3.92;;
4214;SDS011;2121;48.062;7.850;2023-08-17T14:54:13;6.18;;;4.10;;
4214;SDS011;2121;48.062;7.850;2023-08-17T14:56:39;4.65;;;4.25;;
4214;SDS011;2121;48.062;7.850;2023-08-17T14:59:05;6.00;;;3.40;;
4214;SDS011;2121;48.062;7.850;2023-08-17T15:01:30;9.98;;;4.05;;
4214;SDS011;2121;48.062;7.850;2023-08-17T15:03:57;3.30;;;3.10;;
4214;SDS011;2121;48.062;7.850;2023-08-17T15:06:23;4.07;;;3.38;;
4214;SDS011;2121;48.062;7.850;2023-08-17T15:08:52;3.60;;;3.28;;